createdAt,value
2018-11-14T00:00:21.160Z,18.93
2018-11-14T00:05:13.757Z,10.93
2018-11-14T00:10:07.334Z,12.10
2018-11-14T00:14:59.957Z,11.33
2018-11-14T00:19:52.537Z,12.00
2018-11-14T00:24:45.265Z,12.43
2018-11-14T00:29:37.820Z,19.40
2018-11-14T00:34:30.444Z,12.47
2018-11-14T00:39:23.051Z,13.70
2018-11-14T00:44:15.607Z,11.70
2018-11-14T00:49:08.173Z,16.53
2018-11-14T00:54:00.787Z,17.90
2018-11-14T00:58:53.812Z,19.27
2018-11-14T01:03:46.416Z,13.83
2018-11-14T01:08:39.035Z,13.30
2018-11-14T01:13:31.625Z,17.67
2018-11-14T01:18:24.234Z,16.10
2018-11-14T01:23:16.859Z,15.27
2018-11-14T01:28:09.475Z,12.97
2018-11-14T01:33:02.055Z,17.77
2018-11-14T01:37:55.529Z,18.27
2018-11-14T01:42:49.389Z,13.87
2018-11-14T01:47:42.026Z,15.67
2018-11-14T01:52:34.669Z,20.20
2018-11-14T01:57:27.281Z,21.13
2018-11-14T02:02:20.147Z,15.53
2018-11-14T02:07:12.741Z,15.83
2018-11-14T02:12:05.522Z,18.47
2018-11-14T02:16:58.117Z,19.10
2018-11-14T02:21:50.684Z,18.67
2018-11-14T02:26:43.281Z,20.17
2018-11-14T02:31:35.876Z,19.77
2018-11-14T02:36:28.514Z,19.73
2018-11-14T02:41:21.162Z,19.23
2018-11-14T02:46:13.785Z,21.43
2018-11-14T02:51:19.867Z,23.87
2018-11-14T02:56:12.483Z,24.57
2018-11-14T03:01:05.403Z,25.77
2018-11-14T03:05:57.982Z,22.00
2018-11-14T03:10:50.617Z,17.33
2018-11-14T03:15:43.230Z,22.07
2018-11-14T03:20:35.846Z,23.93
2018-11-14T03:25:28.445Z,18.67
2018-11-14T03:30:21.095Z,25.43
2018-11-14T03:35:14.253Z,25.40
2018-11-14T03:40:09.161Z,24.17
2018-11-14T03:45:01.879Z,22.20
2018-11-14T03:49:54.469Z,23.70
2018-11-14T03:54:47.057Z,27.10
2018-11-14T03:59:39.642Z,27.17
2018-11-14T04:04:32.231Z,19.60
2018-11-14T04:09:24.865Z,23.93
2018-11-14T04:14:17.538Z,21.23
2018-11-14T04:19:10.156Z,25.80
2018-11-14T04:24:02.757Z,23.77
2018-11-14T04:28:55.374Z,23.27
2018-11-14T04:33:48.293Z,23.67
2018-11-14T04:38:40.904Z,23.37
2018-11-14T04:43:33.553Z,26.50
2018-11-14T04:48:26.450Z,28.97
2018-11-14T04:53:19.092Z,25.47
2018-11-14T04:58:11.749Z,28.83
2018-11-14T05:03:05.259Z,25.87
2018-11-14T05:07:57.919Z,30.93
2018-11-14T05:12:51.177Z,38.10
2018-11-14T05:17:44.481Z,29.13
2018-11-14T05:22:37.088Z,34.20
2018-11-14T05:27:29.826Z,29.80
2018-11-14T05:32:22.433Z,32.17
2018-11-14T05:37:15.204Z,35.77
2018-11-14T05:42:07.882Z,33.30
2018-11-14T05:47:00.528Z,35.10
2018-11-14T05:51:53.161Z,26.73
2018-11-14T05:56:45.762Z,33.23
2018-11-14T06:01:38.388Z,25.07
2018-11-14T06:06:31.257Z,31.10
2018-11-14T06:11:24.065Z,26.13
2018-11-14T06:16:16.643Z,33.47
2018-11-14T06:21:09.434Z,35.40
2018-11-14T06:26:02.174Z,27.80
2018-11-14T06:30:54.904Z,29.23
2018-11-14T06:35:47.569Z,29.63
2018-11-14T06:40:40.224Z,30.70
2018-11-14T06:45:33.540Z,32.30
2018-11-14T06:50:26.368Z,31.23
2018-11-14T06:55:19.643Z,34.13
2018-11-14T07:00:34.281Z,29.50
2018-11-14T07:05:26.938Z,30.07
2018-11-14T07:10:20.959Z,36.43
2018-11-14T07:15:15.896Z,39.07
2018-11-14T07:20:16.744Z,29.10
2018-11-14T07:25:09.413Z,31.50
2018-11-14T07:30:02.181Z,35.73
2018-11-14T07:34:54.857Z,31.17
2018-11-14T07:39:47.741Z,28.93
2018-11-14T07:44:40.605Z,34.63
2018-11-14T07:49:33.414Z,35.63
2018-11-14T07:54:26.424Z,35.57
2018-11-14T07:59:19.237Z,27.27
2018-11-14T08:04:12.086Z,33.90
2018-11-14T08:09:06.650Z,25.80
2018-11-14T08:13:59.418Z,29.67
2018-11-14T08:18:52.385Z,25.17
2018-11-14T08:23:45.184Z,27.20
2018-11-14T08:28:37.845Z,32.33
2018-11-14T08:33:30.534Z,29.13
2018-11-14T08:38:23.261Z,31.60
2018-11-14T08:43:15.970Z,26.93
2018-11-14T08:48:08.937Z,26.47
2018-11-14T08:53:01.784Z,25.47
2018-11-14T08:57:54.469Z,25.93
2018-11-14T09:02:47.632Z,31.23
2018-11-14T09:07:40.385Z,29.93
2018-11-14T09:12:33.154Z,27.30
2018-11-14T09:17:25.708Z,28.93
2018-11-14T09:22:18.361Z,23.00
2018-11-14T09:27:11.013Z,29.43
2018-11-14T09:32:03.609Z,30.97
2018-11-14T09:36:56.228Z,25.77
2018-11-14T09:41:48.820Z,31.40
2018-11-14T09:46:41.404Z,26.93
2018-11-14T09:51:34.561Z,22.83
2018-11-14T09:56:27.249Z,25.57
2018-11-14T10:01:19.973Z,25.00
2018-11-14T10:06:12.615Z,25.23
2018-11-14T10:11:05.671Z,22.80
2018-11-14T10:15:58.521Z,21.63
2018-11-14T10:20:51.336Z,20.70
2018-11-14T10:25:44.049Z,22.53
2018-11-14T10:30:36.771Z,22.27
2018-11-14T10:35:29.552Z,22.03
2018-11-14T10:40:25.448Z,24.03
2018-11-14T10:45:19.456Z,27.00
2018-11-14T10:50:14.889Z,18.23
2018-11-14T10:55:08.355Z,22.83
2018-11-14T11:00:01.033Z,22.50
2018-11-14T11:04:59.569Z,23.90
2018-11-14T11:09:58.178Z,26.97
2018-11-14T11:15:27.873Z,25.83
2018-11-14T11:20:20.462Z,25.90
2018-11-14T11:25:13.074Z,25.33
2018-11-14T11:30:08.421Z,25.57
2018-11-14T11:35:01.121Z,25.37
2018-11-14T11:39:53.697Z,22.33
2018-11-14T11:44:46.365Z,26.17
2018-11-14T11:49:39.033Z,27.17
2018-11-14T11:54:31.708Z,25.00
2018-11-14T11:59:24.347Z,24.40
2018-11-14T12:04:16.974Z,27.77
2018-11-14T12:09:10.850Z,23.00
2018-11-14T12:14:04.349Z,23.10
2018-11-14T12:18:57.020Z,23.80
2018-11-14T12:23:49.640Z,25.47
2018-11-14T12:28:42.284Z,26.37
2018-11-14T12:33:34.916Z,25.60
2018-11-14T12:38:27.559Z,27.40
2018-11-14T12:43:20.430Z,25.00
2018-11-14T12:48:13.196Z,22.63
2018-11-14T12:53:05.955Z,24.37
2018-11-14T12:57:58.713Z,25.20
2018-11-14T13:02:51.353Z,31.00
2018-11-14T13:07:44.454Z,28.23
2018-11-14T13:12:37.119Z,32.30
2018-11-14T13:17:30.296Z,21.23
2018-11-14T13:22:22.955Z,27.17
2018-11-14T13:27:15.617Z,28.37
2018-11-14T13:32:08.586Z,25.20
2018-11-14T13:37:01.277Z,27.00
2018-11-14T13:41:53.919Z,30.43
2018-11-14T13:46:46.561Z,27.57
2018-11-14T13:51:39.337Z,24.10
2018-11-14T13:56:32.022Z,27.20
2018-11-14T14:01:24.751Z,34.00
2018-11-14T14:06:17.538Z,29.63
2018-11-14T14:11:10.261Z,25.90
2018-11-14T14:16:02.913Z,24.80
2018-11-14T14:20:55.562Z,27.13
2018-11-14T14:25:48.217Z,27.53
2018-11-14T14:30:40.894Z,30.80
2018-11-14T14:35:33.444Z,30.37
2018-11-14T14:40:26.013Z,27.47
2018-11-14T14:45:22.086Z,28.47
2018-11-14T14:50:15.978Z,29.10
2018-11-14T14:55:12.958Z,35.47
2018-11-14T15:00:11.258Z,29.90
2018-11-14T15:05:04.737Z,31.40
2018-11-14T15:09:57.365Z,31.63
2018-11-14T15:14:50.098Z,34.37
2018-11-14T15:19:42.801Z,29.13
2018-11-14T15:24:35.498Z,39.70
2018-11-14T15:29:28.072Z,28.30
2018-11-14T15:34:20.704Z,32.63
2018-11-14T15:39:13.277Z,29.43
2018-11-14T15:44:05.990Z,33.67
2018-11-14T15:48:58.874Z,30.43
2018-11-14T15:53:51.610Z,35.10
2018-11-14T15:58:44.388Z,34.53
2018-11-14T16:03:37.140Z,40.03
2018-11-14T16:08:29.732Z,40.27
2018-11-14T16:13:22.476Z,34.63
2018-11-14T16:18:15.755Z,38.00
2018-11-14T16:23:08.445Z,37.20
2018-11-14T16:28:01.854Z,33.97
2018-11-14T16:32:55.795Z,44.37
2018-11-14T16:37:48.554Z,34.17
2018-11-14T16:42:41.241Z,41.53
2018-11-14T16:47:34.012Z,35.77
2018-11-14T16:52:26.762Z,41.17
2018-11-14T16:57:19.566Z,34.57
2018-11-14T17:02:12.313Z,34.30
2018-11-14T17:07:05.132Z,38.37
2018-11-14T17:11:57.876Z,38.43
2018-11-14T17:16:50.562Z,43.83
2018-11-14T17:21:43.181Z,36.33
2018-11-14T17:26:35.862Z,41.97
2018-11-14T17:31:28.488Z,35.50
2018-11-14T17:36:21.110Z,48.07
2018-11-14T17:41:13.960Z,46.60
2018-11-14T17:46:06.908Z,42.87
2018-11-14T17:50:59.945Z,47.17
2018-11-14T17:55:52.659Z,41.63
2018-11-14T18:00:45.208Z,46.90
2018-11-14T18:05:37.917Z,47.70
2018-11-14T18:10:31.245Z,50.13
2018-11-14T18:15:23.884Z,50.23
2018-11-14T18:20:18.704Z,45.83
2018-11-14T18:25:12.261Z,43.13
2018-11-14T18:30:09.569Z,44.03
2018-11-14T18:35:02.559Z,45.83
2018-11-14T18:39:55.209Z,43.83
2018-11-14T18:44:48.018Z,41.37
2018-11-14T18:49:47.229Z,37.80
2018-11-14T18:54:50.076Z,43.57
2018-11-14T18:59:47.933Z,48.00
2018-11-14T19:04:40.870Z,45.63
2018-11-14T19:09:33.546Z,48.17
2018-11-14T19:14:26.462Z,48.13
2018-11-14T19:19:19.090Z,53.77
2018-11-14T19:24:11.607Z,52.70
2018-11-14T19:29:04.536Z,46.00
2018-11-14T19:33:57.103Z,49.67
2018-11-14T19:38:49.816Z,46.40
2018-11-14T19:43:42.536Z,43.83
2018-11-14T19:48:35.234Z,46.27
2018-11-14T19:53:27.869Z,41.87
2018-11-14T19:58:20.543Z,49.00
2018-11-14T20:03:13.198Z,57.73
2018-11-14T20:08:05.964Z,45.83
2018-11-14T20:12:58.590Z,56.63
2018-11-14T20:17:51.537Z,47.43
2018-11-14T20:22:44.701Z,45.37
2018-11-14T20:27:37.861Z,50.73
2018-11-14T20:32:30.513Z,45.33
2018-11-14T20:37:23.281Z,50.77
2018-11-14T20:42:15.949Z,48.73
2018-11-14T20:47:08.630Z,45.53
2018-11-14T20:52:01.309Z,50.73
2018-11-14T20:56:53.964Z,44.33
2018-11-14T21:01:46.541Z,44.80
2018-11-14T21:06:39.311Z,47.17
2018-11-14T21:11:32.146Z,43.97
2018-11-14T21:16:24.962Z,40.97
2018-11-14T21:21:17.560Z,48.93
2018-11-14T21:26:10.220Z,44.73
2018-11-14T21:31:04.013Z,42.17
2018-11-14T21:35:56.965Z,45.83
2018-11-14T21:40:49.629Z,40.70
2018-11-14T21:45:42.275Z,50.10
2018-11-14T21:50:35.076Z,49.77
2018-11-14T21:55:27.745Z,45.63
2018-11-14T22:00:21.799Z,40.47
2018-11-14T22:05:14.505Z,45.17
2018-11-14T22:10:10.349Z,40.00
2018-11-14T22:15:02.953Z,40.50
2018-11-14T22:19:55.601Z,45.90
2018-11-14T22:24:48.364Z,53.90
2018-11-14T22:29:41.042Z,39.47
2018-11-14T22:34:34.130Z,43.33
2018-11-14T22:39:26.794Z,42.33
2018-11-14T22:44:19.518Z,43.83
2018-11-14T22:49:12.206Z,41.00
2018-11-14T22:54:04.929Z,44.20
2018-11-14T22:58:57.641Z,44.17
2018-11-14T23:03:50.431Z,36.53
2018-11-14T23:08:51.623Z,40.47
2018-11-14T23:18:53.658Z,40.63
2018-11-14T23:23:56.087Z,41.10
2018-11-14T23:28:49.813Z,40.37
2018-11-14T23:33:42.496Z,38.57
2018-11-14T23:38:37.871Z,37.73
2018-11-14T23:43:35.652Z,36.23
2018-11-14T23:48:32.775Z,36.70
2018-11-14T23:53:42.142Z,39.10
2018-11-14T23:58:37.042Z,43.07
